Terminal Aerodrome Forecast
Issued by NWS

Home | Current Version | Previous Version | Text Only | Print | Product List | Glossary On
Versions: 1 2 3 4 5 6 7 8 9 10 11 12 13 14 15
230
FTUS43 KUNR 251129
TAFGCC
TAF
KGCC 251129Z 2512/2612 31007KT P6SM SCT120
     FM251600 31017KT P6SM SCT070
     FM260200 29008KT P6SM FEW100=

USA.gov is the U.S. government's official web portal to all federal, state and local government web resources and services.